createdAt,value
2022-10-19T00:00:11.362Z,12.40
2022-10-19T00:05:26.077Z,12.30
2022-10-19T00:10:21.200Z,12.20
2022-10-19T00:15:16.039Z,12.10
2022-10-19T00:20:13.459Z,12.00
2022-10-19T00:25:11.018Z,11.90
2022-10-19T00:30:08.215Z,11.80
2022-10-19T00:35:03.277Z,11.70
2022-10-19T00:39:58.169Z,11.58
2022-10-19T00:45:16.043Z,11.42
2022-10-19T00:50:15.082Z,11.30
2022-10-19T00:55:12.171Z,11.20
2022-10-19T01:00:11.004Z,11.10
2022-10-19T01:05:09.109Z,11.00
2022-10-19T01:10:05.889Z,10.98
2022-10-19T01:15:18.243Z,10.90
2022-10-19T01:20:51.344Z,10.90
2022-10-19T01:26:02.200Z,10.86
2022-10-19T01:31:05.615Z,10.84
2022-10-19T01:36:12.971Z,10.90
2022-10-19T01:41:17.605Z,10.90
2022-10-19T01:46:18.174Z,10.90
2022-10-19T01:51:19.314Z,11.00
2022-10-19T01:56:17.817Z,11.00
2022-10-19T02:01:16.560Z,11.00
2022-10-19T02:06:17.810Z,11.00
2022-10-19T02:11:12.341Z,11.00
2022-10-19T02:16:16.574Z,11.00
2022-10-19T02:21:12.063Z,11.00
2022-10-19T02:26:07.779Z,11.00
2022-10-19T02:31:04.387Z,11.00
2022-10-19T02:36:00.228Z,10.90
2022-10-19T02:41:07.245Z,10.90
2022-10-19T02:46:11.385Z,10.80
2022-10-19T02:51:26.626Z,10.70
2022-10-19T02:56:22.222Z,10.60
2022-10-19T03:01:17.281Z,10.50
2022-10-19T03:06:12.430Z,10.46
2022-10-19T03:11:07.451Z,10.40
2022-10-19T03:16:10.440Z,10.30
2022-10-19T03:21:08.982Z,10.20
2022-10-19T03:26:04.345Z,10.20
2022-10-19T03:31:00.182Z,10.20
2022-10-19T03:36:17.996Z,10.10
2022-10-19T03:41:13.989Z,10.10
2022-10-19T03:46:09.446Z,10.10
2022-10-19T03:51:08.062Z,10.10
2022-10-19T03:56:12.537Z,10.12
2022-10-19T04:01:11.404Z,10.20
2022-10-19T04:06:11.492Z,10.20
2022-10-19T04:11:10.427Z,10.20
2022-10-19T04:16:07.051Z,10.20
2022-10-19T04:21:04.676Z,10.20
2022-10-19T04:26:03.569Z,10.26
2022-10-19T04:31:01.916Z,10.28
2022-10-19T04:36:00.845Z,10.28
2022-10-19T04:40:56.114Z,10.30
2022-10-19T04:45:50.999Z,10.30
2022-10-19T04:50:45.689Z,10.30
2022-10-19T04:55:48.206Z,10.30
2022-10-19T05:00:43.039Z,10.30
2022-10-19T05:05:38.166Z,10.30
2022-10-19T05:10:34.142Z,10.30
2022-10-19T05:15:28.952Z,10.30
2022-10-19T05:20:24.828Z,10.30
2022-10-19T05:25:20.037Z,10.30
2022-10-19T05:30:14.872Z,10.30
2022-10-19T05:35:11.030Z,10.22
2022-10-19T05:40:09.968Z,10.20
2022-10-19T05:45:06.647Z,10.20
2022-10-19T05:50:01.773Z,10.22
2022-10-19T05:54:57.819Z,10.30
2022-10-19T05:59:56.166Z,10.30
2022-10-19T06:04:51.665Z,10.30
2022-10-19T06:09:47.294Z,10.30
2022-10-19T06:14:42.783Z,10.40
2022-10-19T06:19:38.436Z,10.40
2022-10-19T06:24:33.512Z,10.42
2022-10-19T06:29:28.620Z,10.50
2022-10-19T06:34:24.405Z,10.60
2022-10-19T06:39:19.921Z,10.64
2022-10-19T06:44:14.797Z,10.60
2022-10-19T06:49:14.312Z,10.60
2022-10-19T06:54:09.800Z,10.60
2022-10-19T06:59:04.828Z,10.60
2022-10-19T07:03:59.458Z,10.58
2022-10-19T07:08:54.565Z,10.60
2022-10-19T07:13:49.253Z,10.64
2022-10-19T07:18:44.187Z,10.70
2022-10-19T07:23:41.549Z,10.70
2022-10-19T07:28:36.716Z,10.70
2022-10-19T07:33:31.686Z,10.70
2022-10-19T07:38:26.802Z,10.76
2022-10-19T07:43:21.141Z,10.84
2022-10-19T07:48:16.201Z,10.90
2022-10-19T07:53:11.072Z,11.00
2022-10-19T07:58:05.856Z,11.12
2022-10-19T08:03:31.699Z,11.20
2022-10-19T08:08:15.541Z,11.40
2022-10-19T08:13:11.111Z,11.40
2022-10-19T08:18:06.416Z,11.50
2022-10-19T08:23:01.539Z,11.50
2022-10-19T08:27:56.973Z,11.40
2022-10-19T08:32:52.217Z,11.40
2022-10-19T08:37:47.928Z,11.40
2022-10-19T08:42:57.325Z,11.40
2022-10-19T08:48:21.526Z,11.34
2022-10-19T08:53:27.396Z,11.30
2022-10-19T08:58:47.110Z,11.30
2022-10-19T09:03:55.403Z,11.20
2022-10-19T09:08:55.480Z,11.20
2022-10-19T09:14:04.805Z,11.16
2022-10-19T09:19:00.051Z,11.20
2022-10-19T09:24:04.122Z,11.20
2022-10-19T09:29:07.220Z,11.30
2022-10-19T09:34:11.906Z,11.40
2022-10-19T09:39:07.266Z,11.50
2022-10-19T09:44:02.584Z,11.60
2022-10-19T09:49:01.194Z,11.54
2022-10-19T09:53:56.992Z,11.30
2022-10-19T09:58:55.029Z,11.06
2022-10-19T10:03:55.238Z,10.80
2022-10-19T10:08:57.555Z,10.70
2022-10-19T10:13:55.782Z,10.70
2022-10-19T10:19:01.329Z,10.70
2022-10-19T10:24:16.411Z,10.70
2022-10-19T10:29:28.971Z,10.80
2022-10-19T10:34:46.018Z,10.90
2022-10-19T10:39:46.763Z,11.00
2022-10-19T10:44:50.826Z,11.20
2022-10-19T10:49:56.136Z,11.46
2022-10-19T10:55:02.714Z,11.54
2022-10-19T11:00:07.571Z,11.60
2022-10-19T11:05:10.835Z,11.70
2022-10-19T11:10:20.350Z,12.00
2022-10-19T11:15:23.705Z,12.10
2022-10-19T11:20:19.251Z,12.26
2022-10-19T11:25:38.176Z,12.50
2022-10-19T11:30:42.819Z,12.80
2022-10-19T11:35:52.601Z,13.14
2022-10-19T11:41:19.036Z,13.40
2022-10-19T11:46:25.757Z,13.40
2022-10-19T11:51:32.832Z,13.60
2022-10-19T11:56:58.055Z,13.80
2022-10-19T12:02:03.035Z,14.00
2022-10-19T12:07:15.582Z,14.00
2022-10-19T12:12:25.244Z,13.70
2022-10-19T12:17:29.490Z,13.40
2022-10-19T12:22:29.346Z,13.10
2022-10-19T12:27:32.970Z,12.80
2022-10-19T12:32:31.353Z,12.60
2022-10-19T12:37:33.038Z,12.90
2022-10-19T12:42:38.816Z,13.30
2022-10-19T12:47:34.720Z,13.80
2022-10-19T12:52:44.996Z,14.28
2022-10-19T12:57:47.356Z,14.66
2022-10-19T13:02:44.201Z,15.10
2022-10-19T13:07:39.669Z,15.60
2022-10-19T13:12:49.709Z,16.00
2022-10-19T13:17:45.922Z,16.04
2022-10-19T13:22:41.716Z,15.98
2022-10-19T13:27:40.639Z,15.30
2022-10-19T13:32:42.699Z,14.60
2022-10-19T13:37:38.314Z,13.90
2022-10-19T13:42:33.721Z,13.44
2022-10-19T13:47:39.348Z,13.00
2022-10-19T13:53:01.179Z,12.70
2022-10-19T13:58:40.208Z,12.40
2022-10-19T14:03:57.437Z,12.00
2022-10-19T14:09:38.084Z,11.72
2022-10-19T14:19:47.162Z,11.30
2022-10-19T14:24:42.736Z,11.10
2022-10-19T14:29:47.133Z,10.90
2022-10-19T14:34:43.983Z,10.70
2022-10-19T14:39:38.821Z,10.60
2022-10-19T14:44:41.159Z,10.52
2022-10-19T14:49:36.009Z,10.50
2022-10-19T14:54:36.892Z,10.40
2022-10-19T14:59:37.711Z,10.30
2022-10-19T15:04:38.669Z,10.20
2022-10-19T15:09:47.872Z,10.10
2022-10-19T15:14:45.421Z,10.00
2022-10-19T15:19:43.021Z,9.90
2022-10-19T15:24:38.386Z,9.80
2022-10-19T15:29:33.056Z,9.70
2022-10-19T15:34:31.026Z,9.70
2022-10-19T15:39:39.845Z,9.60
2022-10-19T15:44:44.318Z,9.60
2022-10-19T15:49:59.160Z,9.50
2022-10-19T15:54:56.259Z,9.40
2022-10-19T15:59:52.440Z,9.30
2022-10-19T16:04:48.073Z,9.20
2022-10-19T16:09:43.331Z,9.10
2022-10-19T16:14:38.131Z,9.00
2022-10-19T16:19:33.123Z,8.90
2022-10-19T16:24:28.716Z,8.86
2022-10-19T16:29:28.153Z,8.80
2022-10-19T16:34:24.200Z,8.70
2022-10-19T16:39:20.040Z,8.60
2022-10-19T16:44:15.293Z,8.52
2022-10-19T16:49:10.526Z,8.48
2022-10-19T16:54:09.227Z,8.40
2022-10-19T16:59:06.225Z,8.30
2022-10-19T17:04:01.259Z,8.20
2022-10-19T17:14:14.725Z,8.00
2022-10-19T17:19:11.435Z,7.96
2022-10-19T17:24:13.841Z,7.88
2022-10-19T17:29:12.718Z,7.80
2022-10-19T17:34:08.682Z,7.70
2022-10-19T17:39:08.206Z,7.60
2022-10-19T17:44:05.920Z,7.50
2022-10-19T17:49:01.140Z,7.50
2022-10-19T17:53:59.403Z,7.40
2022-10-19T17:58:55.812Z,7.30
2022-10-19T18:03:52.020Z,7.24
2022-10-19T18:08:49.915Z,7.20
2022-10-19T18:13:45.701Z,7.10
2022-10-19T18:18:45.184Z,7.08
2022-10-19T18:23:41.809Z,7.00
2022-10-19T18:28:37.750Z,6.90
2022-10-19T18:33:32.655Z,6.90
2022-10-19T18:38:27.524Z,6.80
2022-10-19T18:43:22.585Z,6.80
2022-10-19T18:48:17.936Z,6.70
2022-10-19T18:53:14.129Z,6.60
2022-10-19T18:58:10.205Z,6.50
2022-10-19T19:03:06.957Z,6.40
2022-10-19T19:08:03.157Z,6.32
2022-10-19T19:12:58.232Z,6.30
2022-10-19T19:17:56.052Z,6.20
2022-10-19T19:22:51.013Z,6.10
2022-10-19T19:27:46.460Z,6.10
2022-10-19T19:32:43.427Z,6.00
2022-10-19T19:37:39.186Z,5.90
2022-10-19T19:42:35.428Z,5.88
2022-10-19T19:47:30.239Z,5.80
2022-10-19T19:52:25.421Z,5.80
2022-10-19T19:57:19.823Z,5.78
2022-10-19T20:02:16.287Z,5.72
2022-10-19T20:07:11.204Z,5.70
2022-10-19T20:12:06.653Z,5.64
2022-10-19T20:17:04.192Z,5.60
2022-10-19T20:21:59.977Z,5.54
2022-10-19T20:26:56.569Z,5.50
2022-10-19T20:31:51.716Z,5.42
2022-10-19T20:36:47.268Z,5.40
2022-10-19T20:41:43.800Z,5.30
2022-10-19T20:46:39.379Z,5.20
2022-10-19T20:51:37.965Z,5.20
2022-10-19T20:56:36.502Z,5.10
2022-10-19T21:01:35.177Z,5.10
2022-10-19T21:06:35.274Z,5.00
2022-10-19T21:11:32.791Z,4.92
2022-10-19T21:16:33.288Z,4.90
2022-10-19T21:21:31.362Z,4.80
2022-10-19T21:26:28.674Z,4.80
2022-10-19T21:31:25.890Z,4.70
2022-10-19T21:36:24.534Z,4.70
2022-10-19T21:41:25.490Z,4.60
2022-10-19T21:46:23.684Z,4.60
2022-10-19T21:51:37.724Z,4.60
2022-10-19T21:56:33.689Z,4.60
2022-10-19T22:01:35.972Z,4.52
2022-10-19T22:06:36.479Z,4.50
2022-10-19T22:11:31.893Z,4.50
2022-10-19T22:16:29.147Z,4.50
2022-10-19T22:21:26.589Z,4.50
2022-10-19T22:26:26.616Z,4.50
2022-10-19T22:31:20.922Z,4.50
2022-10-19T22:36:16.731Z,4.40
2022-10-19T22:42:23.264Z,4.40
2022-10-19T22:47:36.902Z,4.30
2022-10-19T22:52:32.616Z,4.22
2022-10-19T22:57:27.766Z,4.20
2022-10-19T23:02:22.468Z,4.20
2022-10-19T23:07:17.630Z,4.10
2022-10-19T23:12:12.447Z,4.02
2022-10-19T23:17:07.419Z,4.00
2022-10-19T23:22:01.512Z,4.00
2022-10-19T23:26:56.602Z,3.90
2022-10-19T23:31:51.186Z,3.86
2022-10-19T23:36:46.235Z,3.84
2022-10-19T23:41:41.026Z,3.90
2022-10-19T23:46:38.866Z,3.82
2022-10-19T23:51:33.748Z,3.80
2022-10-19T23:56:31.379Z,3.80
